South Elgin, IL (60177)

5:28 AM CST on February 13, 2016 (GMT -0600)
Wing Park, Elgin, IL | | Change Station
CLOSE
Current Station
Personal Weather Station
Location: Elgin, IL
Elevation: 810 ft
Nearby Weather Stations
Active Advisory: Wind Chill Advisory

Elev 810 ft 42.05 °N, 88.30 °W | Updated 20 seconds ago

Clear
Clear
6.0 °F
Feels Like 6 °F
N
2.0
Wind Variable Wind from NNW
Gusts 4.0 mph

Today
High -- | Low -- °F
--% Chance of Precip.
Yesterday
High -- | Low -- °F
Precip. -- in
Pressure 30.60 in
Visibility 10.0 miles
Clouds Clear
Windchill 6 °F
Dew Point -5 °F
Humidity 58%
Rainfall 0.00 in
Snow Depth Not available.
6:52 AM 5:22 PM
Waxing Crescent, 30% visible
METAR KDPA 131052Z AUTO 31009KT 10SM CLR M17/M24 A3054 RMK AO2 SLP360 T11671239
Pressure 30.60 in
Visibility 10.0 miles
Clouds Clear
Windchill 6 °F
Dew Point -5 °F
Humidity 58%
Rainfall 0.00 in
Snow Depth Not available.
6:52 AM 5:22 PM
Waxing Crescent, 30% visible
METAR KDPA 131052Z AUTO 31009KT 10SM CLR M17/M24 A3054 RMK AO2 SLP360 T11671239

10-Day Weather Forecast

Almanac

Astronomy

Feb. 13, 2016 Rise Set
Actual Time
Civil Twilight
Nautical Twilight
Astronomical Twilight
Moon
Length of Visible Light
Length of Day
Tomorrow will be .
, % of the Moon is Illuminated

Today's Extremes

State Highs State Lows

Community

WunderPhotos

Upload Photos

1,892,541 photos uploaded!

WunderBlog® & News

Nearby

Air Quality

  Air Quality AQ Index Pollutant
Not available.

Snow Depth

Station Depth Elevation

Earthquake Activity

City Distance Mag. Time & Date
Minimum magnitude displayed is 2.5.

Coastal Water Temperatures

Place Temperature

Stations

Nearby Weather Stations

Station Location Temp. Windchill Dew Point Humidity Wind Precip. Elev Updated Type
                   

Watches & Warnings

Wind Chill Advisory
Issued: 3:53 AM CST Feb. 13, 2016 – National Weather Service

... Wind Chill Advisory remains in effect until 9 am CST this
morning...

* wind chill values... expect wind chills to range from 10 and 20
below zero.

Precautionary/preparedness actions...

A Wind Chill Advisory means that cold air and the wind will
combine to generate low wind chills. Frost bite and hypothermia
can occur if precautions are not taken. Make sure you wear a hat
and gloves.


Rodriguez